GREGR EGPE-ZZZZ

Flight info

Callsign GREGR
Flight time N/A
Altitude 1499
Route EGPE ZZZZ
Aircraft AS50/L-VGDW/C

Departure

Time 2026-05-04 18:17
Airport Inverness Airport (EGPE)

Arrival

Time N/A
Airport ZZZZ
Time Latitude Longitude Altitude Speed Heading
2026-05-04 18:13 57.56546 -3.99295 71 ft 0 kts 359°
2026-05-04 18:17 57.56463 -3.99517 110 ft 53 kts 238°
2026-05-04 18:17 57.56212 -4.00143 289 ft 62 kts 237°
2026-05-04 18:17 57.55669 -4.01469 725 ft 68 kts 237°
2026-05-04 18:18 57.55347 -4.02175 935 ft 67 kts 236°
2026-05-04 18:18 57.55030 -4.02800 1162 ft 66 kts 235°
2026-05-04 18:18 57.54707 -4.03414 1406 ft 67 kts 235°
2026-05-04 18:18 57.54598 -4.04199 1674 ft 64 kts 285°
2026-05-04 18:19 57.54944 -4.05730 2196 ft 76 kts 295°
2026-05-04 18:19 57.55231 -4.06741 2150 ft 95 kts 297°
2026-05-04 18:19 57.55569 -4.07850 2144 ft 101 kts 299°
2026-05-04 18:20 57.55936 -4.08993 2139 ft 104 kts 300°
2026-05-04 18:20 57.56312 -4.10117 2137 ft 104 kts 301°
2026-05-04 18:20 57.56702 -4.11261 2139 ft 104 kts 301°
2026-05-04 18:20 57.57098 -4.12404 2138 ft 104 kts 302°
2026-05-04 18:21 57.57501 -4.13539 2135 ft 104 kts 302°
2026-05-04 18:21 57.57901 -4.14659 2138 ft 103 kts 302°
2026-05-04 18:21 57.58301 -4.15773 2138 ft 104 kts 302°
2026-05-04 18:21 57.58707 -4.16898 2139 ft 105 kts 302°
2026-05-04 18:22 57.59116 -4.18034 2161 ft 109 kts 301°
2026-05-04 18:22 57.59548 -4.19287 2146 ft 120 kts 301°
2026-05-04 18:22 57.60014 -4.20610 2144 ft 124 kts 301°
2026-05-04 18:22 57.60499 -4.21951 2139 ft 125 kts 303°
2026-05-04 18:23 57.60986 -4.23274 2139 ft 123 kts 303°
2026-05-04 18:23 57.61474 -4.24596 2141 ft 124 kts 303°
2026-05-04 18:23 57.61962 -4.25931 2140 ft 125 kts 303°
2026-05-04 18:23 57.62454 -4.27283 2140 ft 127 kts 304°
2026-05-04 18:24 57.62962 -4.28626 2136 ft 126 kts 304°
2026-05-04 18:24 57.63464 -4.29966 2137 ft 127 kts 304°
2026-05-04 18:24 57.63968 -4.31340 2141 ft 129 kts 303°
2026-05-04 18:24 57.64471 -4.32729 2138 ft 129 kts 303°
2026-05-04 18:25 57.64971 -4.34118 2137 ft 129 kts 303°
2026-05-04 18:25 57.65474 -4.35512 2138 ft 129 kts 303°
2026-05-04 18:25 57.65972 -4.36892 2139 ft 128 kts 303°
2026-05-04 18:25 57.66467 -4.38261 2141 ft 127 kts 303°
2026-05-04 18:26 57.66963 -4.39629 2140 ft 128 kts 303°
2026-05-04 18:26 57.67474 -4.41002 2139 ft 129 kts 306°
2026-05-04 18:26 57.68066 -4.42247 2139 ft 128 kts 311°
2026-05-04 18:26 57.68702 -4.43404 2140 ft 127 kts 314°
2026-05-04 18:27 57.69346 -4.44553 2140 ft 130 kts 314°
2026-05-04 18:27 57.70002 -4.45723 2143 ft 131 kts 314°
2026-05-04 18:27 57.70667 -4.46915 2141 ft 133 kts 314°
2026-05-04 18:27 57.71333 -4.48114 2137 ft 132 kts 314°
2026-05-04 18:28 57.71963 -4.49336 2141 ft 129 kts 307°
2026-05-04 18:28 57.72434 -4.50731 2134 ft 126 kts 296°
2026-05-04 18:28 57.72727 -4.52248 2138 ft 124 kts 281°
2026-05-04 18:28 57.72648 -4.53842 2141 ft 124 kts 261°
2026-05-04 18:29 57.72454 -4.55412 2143 ft 124 kts 264°
2026-05-04 18:29 57.72344 -4.57000 2140 ft 123 kts 264°
2026-05-04 18:29 57.72022 -4.58496 2145 ft 128 kts 243°
2026-05-04 18:29 57.71425 -4.59765 2145 ft 134 kts 230°
2026-05-04 18:30 57.70114 -4.62222 2137 ft 132 kts 238°
2026-05-04 18:30 57.69569 -4.63595 2140 ft 131 kts 239°
2026-05-04 18:30 57.69249 -4.65120 2138 ft 124 kts 265°
2026-05-04 18:31 57.69273 -4.66725 2146 ft 124 kts 278°
2026-05-04 18:31 57.69413 -4.68322 2148 ft 126 kts 281°
2026-05-04 18:31 57.69524 -4.69949 2139 ft 125 kts 278°
2026-05-04 18:31 57.69578 -4.71572 2146 ft 125 kts 276°
2026-05-04 18:32 57.69609 -4.73190 2148 ft 124 kts 274°
2026-05-04 18:32 57.69643 -4.74804 2149 ft 124 kts 274°
2026-05-04 18:32 57.69684 -4.76413 2150 ft 123 kts 276°
2026-05-04 18:32 57.69830 -4.77985 2150 ft 123 kts 287°
2026-05-04 18:33 57.70106 -4.79498 2154 ft 124 kts 291°
2026-05-04 18:33 57.70433 -4.81005 2151 ft 126 kts 292°
2026-05-04 18:33 57.70775 -4.82511 2151 ft 126 kts 293°
2026-05-04 18:33 57.71121 -4.84009 2147 ft 125 kts 294°
2026-05-04 18:34 57.71452 -4.85489 2154 ft 122 kts 293°
2026-05-04 18:34 57.71775 -4.86964 2152 ft 123 kts 293°
2026-05-04 18:34 57.72111 -4.88452 2152 ft 123 kts 293°
2026-05-04 18:34 57.72453 -4.89956 2154 ft 126 kts 293°
2026-05-04 18:35 57.72800 -4.91481 2155 ft 128 kts 293°
2026-05-04 18:35 57.73145 -4.93009 2155 ft 127 kts 294°
2026-05-04 18:35 57.73477 -4.94562 2154 ft 129 kts 292°
2026-05-04 18:35 57.73804 -4.96147 2154 ft 128 kts 292°
2026-05-04 18:36 57.74124 -4.97698 2161 ft 128 kts 292°
2026-05-04 18:36 57.74480 -4.99232 2157 ft 128 kts 294°
2026-05-04 18:36 57.74923 -5.00668 2157 ft 128 kts 308°
2026-05-04 18:36 57.75621 -5.01699 2159 ft 130 kts 326°
2026-05-04 18:37 57.76416 -5.02549 2157 ft 133 kts 329°
2026-05-04 18:37 57.77236 -5.03372 2164 ft 135 kts 329°
2026-05-04 18:37 57.78077 -5.04178 2155 ft 135 kts 333°
2026-05-04 18:37 57.78930 -5.04858 2156 ft 134 kts 336°
2026-05-04 18:38 57.79819 -5.05407 2158 ft 135 kts 339°
2026-05-04 18:38 57.80718 -5.05922 2156 ft 134 kts 340°
2026-05-04 18:38 57.81611 -5.06440 2154 ft 133 kts 340°
2026-05-04 18:38 57.82480 -5.06987 2155 ft 131 kts 336°
2026-05-04 18:39 57.83325 -5.07629 2152 ft 131 kts 333°
2026-05-04 18:39 57.84155 -5.08312 2157 ft 130 kts 332°
2026-05-04 18:39 57.84985 -5.09015 2158 ft 131 kts 333°
2026-05-04 18:39 57.85776 -5.09829 2152 ft 128 kts 323°
2026-05-04 18:40 57.86461 -5.10867 2158 ft 126 kts 317°
2026-05-04 18:40 57.87108 -5.11975 2157 ft 125 kts 315°
2026-05-04 18:40 57.87743 -5.13093 2160 ft 125 kts 316°
2026-05-04 18:40 57.88379 -5.14210 2159 ft 126 kts 316°
2026-05-04 18:41 57.89021 -5.15328 2158 ft 126 kts 316°
2026-05-04 18:41 57.89666 -5.16439 2158 ft 126 kts 316°
2026-05-04 18:41 57.90318 -5.17548 2161 ft 127 kts 316°
2026-05-04 18:41 57.90990 -5.18622 2159 ft 127 kts 322°
2026-05-04 18:42 57.91750 -5.19491 2162 ft 129 kts 328°
2026-05-04 18:42 57.92547 -5.20285 2160 ft 130 kts 330°
2026-05-04 18:42 57.93360 -5.21061 2156 ft 131 kts 331°
2026-05-04 18:42 57.94161 -5.21846 2158 ft 129 kts 328°
2026-05-04 18:43 57.94884 -5.22696 2161 ft 128 kts 324°
2026-05-04 18:43 57.95594 -5.23709 2159 ft 128 kts 319°
2026-05-04 18:43 57.96251 -5.24826 2156 ft 127 kts 315°
2026-05-04 18:43 57.96867 -5.26014 2158 ft 127 kts 312°
2026-05-04 18:44 57.97441 -5.27226 2161 ft 127 kts 310°
2026-05-04 18:44 57.97635 -5.27654 2158 ft 127 kts 310°
2026-05-04 18:44 57.98559 -5.29806 2165 ft 128 kts 308°
2026-05-04 18:44 57.99105 -5.31146 2162 ft 130 kts 307°
2026-05-04 18:45 57.99644 -5.32505 2156 ft 129 kts 306°
2026-05-04 18:45 58.00154 -5.33886 2158 ft 128 kts 304°
2026-05-04 18:45 58.00653 -5.35277 2160 ft 128 kts 304°
2026-05-04 18:45 58.00992 -5.36217 2159 ft 128 kts 304°
2026-05-04 18:46 58.01658 -5.38083 2050 ft 134 kts 302°
2026-05-04 18:46 58.02111 -5.39595 1941 ft 132 kts 299°
2026-05-04 18:46 58.02508 -5.41145 1853 ft 130 kts 296°
2026-05-04 18:46 58.02877 -5.42688 1717 ft 123 kts 297°
2026-05-04 18:47 58.03208 -5.44098 1529 ft 114 kts 297°
2026-05-04 18:47 58.03539 -5.45434 1307 ft 112 kts 298°
2026-05-04 18:47 58.03810 -5.46251 1189 ft 109 kts 314°
2026-05-04 18:47 58.04445 -5.46892 1156 ft 99 kts 354°
2026-05-04 18:48 58.05020 -5.46550 1142 ft 82 kts 38°
2026-05-04 18:48 58.05134 -5.45742 1082 ft 60 kts 141°
2026-05-04 18:48 58.04782 -5.45537 823 ft 58 kts 208°
2026-05-04 18:48 58.04442 -5.45813 578 ft 46 kts 209°
2026-05-04 18:49 58.04388 -5.46222 410 ft 28 kts 299°
2026-05-04 18:49 58.04510 -5.46376 289 ft 12 kts 304°
2026-05-04 18:49 58.04559 -5.46445 194 ft 8 kts 304°
2026-05-04 18:49 58.04602 -5.46521 118 ft 7 kts 306°
2026-05-04 18:50 58.04619 -5.46543 67 ft 1 kts 306°
2026-05-04 18:50 58.04620 -5.46546 67 ft 0 kts 310°
2026-05-04 18:51 58.04621 -5.46547 70 ft 0 kts 311°
2026-05-04 18:51 58.04623 -5.46546 72 ft 2 kts 336°
2026-05-04 18:52 58.04831 -5.46587 277 ft 64 kts 16°
2026-05-04 18:52 58.05068 -5.45653 429 ft 95 kts 86°
2026-05-04 18:52 58.05086 -5.44331 470 ft 109 kts 86°
2026-05-04 18:52 58.05095 -5.43024 470 ft 88 kts 93°
2026-05-04 18:53 58.05045 -5.42014 375 ft 68 kts 93°
2026-05-04 18:53 58.05050 -5.41268 295 ft 48 kts 70°
2026-05-04 18:53 58.05212 -5.40892 220 ft 26 kts 358°
2026-05-04 18:53 58.05307 -5.40973 169 ft 10 kts 308°
2026-05-04 18:54 58.05343 -5.41020 164 ft 1 kts 307°
2026-05-04 18:54 58.05348 -5.41026 190 ft 3 kts 302°
2026-05-04 18:54 58.05333 -5.41464 225 ft 61 kts 265°
2026-05-04 18:54 58.05250 -5.42361 297 ft 74 kts 263°
2026-05-04 18:55 58.05156 -5.43328 353 ft 74 kts 266°
2026-05-04 18:55 58.04740 -5.45071 339 ft 64 kts 233°
2026-05-04 18:55 58.04486 -5.45626 296 ft 48 kts 252°
2026-05-04 18:56 58.04454 -5.46061 241 ft 25 kts 292°
2026-05-04 18:56 58.04522 -5.46317 230 ft 20 kts 296°
2026-05-04 18:56 58.04584 -5.46467 214 ft 11 kts 301°
2026-05-04 18:56 58.04615 -5.46529 174 ft 1 kts 303°
2026-05-04 18:57 58.04673 -5.46586 222 ft 37 kts 340°
2026-05-04 18:57 58.04979 -5.46163 315 ft 78 kts 66°
2026-05-04 18:57 58.05030 -5.45007 328 ft 97 kts 83°
2026-05-04 18:57 58.05055 -5.43671 350 ft 103 kts 88°
2026-05-04 18:58 58.05041 -5.42506 338 ft 73 kts 89°
2026-05-04 18:58 58.05050 -5.41729 316 ft 49 kts 83°
2026-05-04 18:58 58.05103 -5.41201 268 ft 32 kts 76°
2026-05-04 18:58 58.05188 -5.40940 203 ft 18 kts 24°
2026-05-04 18:59 58.05279 -5.40940 170 ft 12 kts 320°
2026-05-04 18:59 58.05325 -5.40991 156 ft 6 kts 309°
2026-05-04 18:59 58.05343 -5.41021 153 ft 0 kts 309°
2026-05-04 18:59 58.05365 -5.41246 212 ft 47 kts 276°
2026-05-04 19:00 58.05314 -5.42043 287 ft 70 kts 263°
2026-05-04 19:00 58.05195 -5.42984 402 ft 78 kts 265°
2026-05-04 19:00 58.05109 -5.44067 364 ft 87 kts 262°
2026-05-04 19:00 58.04822 -5.44988 332 ft 70 kts 236°
2026-05-04 19:01 58.04561 -5.45565 279 ft 48 kts 242°
2026-05-04 19:01 58.04465 -5.46073 231 ft 35 kts 281°
2026-05-04 19:01 58.04556 -5.46382 242 ft 18 kts 297°
2026-05-04 19:01 58.04611 -5.46501 206 ft 3 kts 298°
2026-05-04 19:02 58.04664 -5.46574 264 ft 34 kts 326°
2026-05-04 19:02 58.04953 -5.46235 423 ft 75 kts 60°
2026-05-04 19:02 58.05021 -5.45066 410 ft 101 kts 82°
2026-05-04 19:02 58.05058 -5.43677 441 ft 107 kts 86°
2026-05-04 19:03 58.05053 -5.42416 377 ft 80 kts 90°
2026-05-04 19:03 58.05038 -5.41539 319 ft 57 kts 80°
2026-05-04 19:03 58.05140 -5.40966 236 ft 33 kts 34°
2026-05-04 19:03 58.05272 -5.40915 176 ft 13 kts 310°
2026-05-04 19:04 58.05327 -5.40994 161 ft 7 kts 309°
2026-05-04 19:04 58.05344 -5.41023 152 ft 1 kts 309°
2026-05-04 19:04 58.05380 -5.41200 231 ft 40 kts 287°
2026-05-04 19:04 58.05371 -5.41972 293 ft 76 kts 266°
2026-05-04 19:05 58.05230 -5.43065 332 ft 93 kts 257°
2026-05-04 19:05 58.05022 -5.44322 294 ft 106 kts 251°
2026-05-04 19:05 58.04561 -5.45326 275 ft 90 kts 235°
2026-05-04 19:05 58.04438 -5.46051 192 ft 41 kts 290°
2026-05-04 19:06 58.04538 -5.46355 195 ft 13 kts 296°
2026-05-04 19:06 58.04603 -5.46484 158 ft 12 kts 299°
2026-05-04 19:06 58.04619 -5.46531 147 ft 1 kts 302°
2026-05-04 19:06 58.04869 -5.46551 215 ft 75 kts 13°
2026-05-04 19:07 58.05142 -5.45654 326 ft 96 kts 90°
2026-05-04 19:07 58.05127 -5.44289 349 ft 109 kts 86°
2026-05-04 19:07 58.05107 -5.42817 384 ft 116 kts 91°
2026-05-04 19:07 58.05064 -5.41438 264 ft 80 kts 91°
2026-05-04 19:08 58.05199 -5.40870 198 ft 29 kts 358°
2026-05-04 19:08 58.05308 -5.40960 167 ft 12 kts 308°
2026-05-04 19:08 58.05345 -5.41021 143 ft 1 kts 307°
2026-05-04 19:08 58.05369 -5.41186 201 ft 34 kts 281°
2026-05-04 19:09 58.05322 -5.41840 269 ft 66 kts 260°
2026-05-04 19:09 58.05203 -5.42825 274 ft 87 kts 263°
2026-05-04 19:09 58.05087 -5.44014 282 ft 96 kts 261°
2026-05-04 19:09 58.04780 -5.45110 302 ft 93 kts 231°
2026-05-04 19:10 58.04462 -5.45936 239 ft 60 kts 273°
2026-05-04 19:10 58.04583 -5.46446 210 ft 21 kts 300°
2026-05-04 19:10 58.04613 -5.46520 157 ft 2 kts 294°
2026-05-04 19:10 58.04620 -5.46541 91 ft 1 kts 293°
2026-05-04 19:11 58.04622 -5.46545 72 ft 0 kts 297°
2026-05-04 19:12 58.04500 -5.46118 166 ft 22 kts 352°
2026-05-04 19:12 58.04535 -5.46116 137 ft 1 kts 301°
2026-05-04 19:13 58.04538 -5.46118 131 ft 0 kts 305°